createdAt,value
2018-06-09T00:04:13.013Z,93.80
2018-06-09T00:09:08.791Z,106.77
2018-06-09T00:14:03.403Z,111.17
2018-06-09T00:18:58.264Z,110.17
2018-06-09T00:23:52.842Z,118.63
2018-06-09T00:28:47.747Z,114.23
2018-06-09T00:33:42.289Z,127.57
2018-06-09T00:38:36.954Z,137.13
2018-06-09T00:43:31.460Z,137.87
2018-06-09T00:48:26.919Z,129.57
2018-06-09T00:53:21.622Z,142.37
2018-06-09T00:58:16.242Z,149.00
2018-06-09T01:03:10.993Z,146.17
2018-06-09T01:08:05.496Z,156.90
2018-06-09T01:13:00.536Z,160.83
2018-06-09T01:17:55.189Z,170.97
2018-06-09T01:22:49.673Z,175.40
2018-06-09T01:27:44.174Z,176.33
2018-06-09T01:32:40.160Z,198.40
2018-06-09T01:37:34.694Z,203.50
2018-06-09T01:42:30.035Z,191.07
2018-06-09T01:47:24.824Z,190.40
2018-06-09T01:52:19.564Z,194.20
2018-06-09T01:57:14.028Z,178.00
2018-06-09T02:02:08.978Z,185.50
2018-06-09T02:07:03.454Z,183.50
2018-06-09T02:11:58.276Z,160.17
2018-06-09T02:16:53.516Z,167.47
2018-06-09T02:21:48.724Z,168.23
2018-06-09T02:26:44.363Z,162.27
2018-06-09T02:31:39.166Z,157.63
2018-06-09T02:36:33.804Z,136.70
2018-06-09T02:41:28.586Z,132.23
2018-06-09T02:46:23.677Z,120.70
2018-06-09T02:51:18.284Z,133.77
2018-06-09T02:56:12.863Z,112.47
2018-06-09T03:01:08.175Z,119.00
2018-06-09T03:06:02.765Z,105.60
2018-06-09T03:10:57.316Z,93.07
2018-06-09T03:15:51.598Z,100.83
2018-06-09T03:20:46.081Z,98.03
2018-06-09T03:25:40.580Z,102.93
2018-06-09T03:30:35.166Z,99.87
2018-06-09T03:35:29.881Z,98.20
2018-06-09T03:40:24.420Z,97.83
2018-06-09T03:45:18.949Z,100.33
2018-06-09T03:50:13.538Z,94.80
2018-06-09T03:55:08.095Z,98.13
2018-06-09T04:00:02.676Z,100.10
2018-06-09T04:04:57.987Z,105.63
2018-06-09T04:09:53.798Z,100.87
2018-06-09T04:14:48.913Z,102.57
2018-06-09T04:19:43.434Z,111.40
2018-06-09T04:24:37.900Z,107.80
2018-06-09T04:29:32.279Z,115.87
2018-06-09T04:34:26.871Z,106.37
2018-06-09T04:39:21.476Z,118.97
2018-06-09T04:44:16.231Z,124.87
2018-06-09T04:49:10.602Z,130.50
2018-06-09T04:54:05.500Z,136.00
2018-06-09T04:58:59.948Z,136.90
2018-06-09T05:03:54.455Z,142.07
2018-06-09T05:08:49.150Z,157.33
2018-06-09T05:13:43.408Z,188.20
2018-06-09T05:18:37.908Z,178.17
2018-06-09T05:23:32.413Z,189.57
2018-06-09T05:28:27.052Z,176.77
2018-06-09T05:33:21.534Z,142.00
2018-06-09T05:38:16.017Z,129.23
2018-06-09T05:43:11.184Z,112.83
2018-06-09T05:48:05.875Z,99.40
2018-06-09T05:53:00.490Z,89.17
2018-06-09T05:57:54.954Z,73.00
2018-06-09T06:02:49.604Z,68.23
2018-06-09T06:07:44.438Z,66.20
2018-06-09T06:12:38.999Z,67.17
2018-06-09T06:17:33.515Z,81.23
2018-06-09T06:22:28.310Z,78.53
2018-06-09T06:27:22.919Z,83.73
2018-06-09T06:32:17.530Z,86.23
2018-06-09T06:37:12.667Z,74.53
2018-06-09T06:42:07.320Z,75.63
2018-06-09T06:47:02.455Z,102.23
2018-06-09T06:51:57.174Z,95.90
2018-06-09T06:56:51.538Z,96.73
2018-06-09T07:01:46.689Z,97.20
2018-06-09T07:06:41.559Z,91.37
2018-06-09T07:11:36.889Z,83.40
2018-06-09T07:16:31.642Z,89.23
2018-06-09T07:21:26.729Z,90.43
2018-06-09T07:26:21.412Z,97.07
2018-06-09T07:31:16.214Z,92.40
2018-06-09T07:36:10.816Z,104.57
2018-06-09T07:41:05.418Z,101.80
2018-06-09T07:45:59.937Z,91.00
2018-06-09T07:50:54.624Z,86.67
2018-06-09T07:55:49.561Z,79.40
2018-06-09T08:00:44.871Z,62.80
2018-06-09T08:05:40.207Z,63.80
2018-06-09T08:10:36.110Z,57.27
2018-06-09T08:15:31.330Z,51.33
2018-06-09T08:20:26.374Z,51.27
2018-06-09T08:25:21.334Z,50.37
2018-06-09T08:30:16.344Z,47.27
2018-06-09T08:35:11.793Z,47.83
2018-06-09T08:40:07.156Z,48.77
2018-06-09T08:45:02.333Z,45.33
2018-06-09T08:49:57.176Z,48.83
2018-06-09T08:54:52.050Z,46.83
2018-06-09T08:59:47.395Z,50.13
2018-06-09T09:04:42.149Z,46.43
2018-06-09T09:09:37.201Z,40.80
2018-06-09T09:14:34.031Z,41.97
2018-06-09T09:19:28.840Z,36.80
2018-06-09T09:24:23.570Z,36.00
2018-06-09T09:29:18.318Z,32.13
2018-06-09T09:34:13.078Z,36.57
2018-06-09T09:39:09.458Z,30.90
2018-06-09T09:44:04.607Z,29.57
2018-06-09T09:48:59.731Z,30.80
2018-06-09T09:53:54.717Z,32.00
2018-06-09T09:58:49.872Z,28.10
2018-06-09T10:03:44.992Z,30.70
2018-06-09T10:08:39.784Z,31.93
2018-06-09T10:13:34.582Z,26.23
2018-06-09T10:18:29.726Z,29.53
2018-06-09T10:23:24.516Z,28.60
2018-06-09T10:28:19.296Z,27.90
2018-06-09T10:33:14.728Z,24.83
2018-06-09T10:38:09.490Z,27.47
2018-06-09T10:43:04.500Z,27.13
2018-06-09T10:47:59.562Z,25.80
2018-06-09T10:53:07.977Z,30.13
2018-06-09T10:58:03.385Z,22.90
2018-06-09T11:02:58.269Z,24.63
2018-06-09T11:07:53.294Z,26.80
2018-06-09T11:12:48.182Z,28.30
2018-06-09T11:17:49.373Z,27.60
2018-06-09T11:22:44.204Z,28.97
2018-06-09T11:27:39.192Z,28.50
2018-06-09T11:32:34.180Z,23.03
2018-06-09T11:37:29.197Z,23.47
2018-06-09T11:42:23.971Z,19.87
2018-06-09T11:47:19.148Z,20.50
2018-06-09T11:52:13.930Z,19.07
2018-06-09T11:57:09.006Z,18.60
2018-06-09T12:02:03.545Z,19.03
2018-06-09T12:06:58.315Z,22.40
2018-06-09T12:11:53.192Z,20.77
2018-06-09T12:16:47.940Z,22.87
2018-06-09T12:21:42.678Z,17.73
2018-06-09T12:26:37.468Z,19.07
2018-06-09T12:31:32.476Z,21.30
2018-06-09T12:36:27.377Z,21.20
2018-06-09T12:41:22.158Z,21.67
2018-06-09T12:46:16.901Z,20.23
2018-06-09T12:51:11.636Z,19.63
2018-06-09T12:56:06.377Z,19.70
2018-06-09T13:01:01.204Z,21.00
2018-06-09T13:05:56.186Z,23.60
2018-06-09T13:10:52.011Z,26.27
2018-06-09T13:15:46.831Z,27.00
2018-06-09T13:20:42.188Z,28.67
2018-06-09T13:25:37.086Z,29.53
2018-06-09T13:30:31.952Z,24.73
2018-06-09T13:35:27.001Z,36.03
2018-06-09T13:40:22.260Z,25.37
2018-06-09T13:45:17.388Z,25.80
2018-06-09T13:50:12.202Z,25.70
2018-06-09T13:55:07.004Z,26.07
2018-06-09T14:00:02.438Z,28.63
2018-06-09T14:04:57.225Z,25.23
2018-06-09T14:09:51.953Z,24.77
2018-06-09T14:14:46.698Z,21.90
2018-06-09T14:19:41.881Z,22.93
2018-06-09T14:24:36.834Z,25.50
2018-06-09T14:29:31.725Z,27.73
2018-06-09T14:34:26.617Z,23.73
2018-06-09T14:39:22.429Z,25.70
2018-06-09T14:44:17.323Z,23.77
2018-06-09T14:49:12.048Z,27.33
2018-06-09T14:54:06.790Z,28.23
2018-06-09T14:59:02.017Z,22.33
2018-06-09T15:03:56.766Z,23.60
2018-06-09T15:08:51.584Z,22.77
2018-06-09T15:13:46.484Z,27.90
2018-06-09T15:18:41.464Z,25.33
2018-06-09T15:23:36.469Z,26.90
2018-06-09T15:28:31.319Z,28.80
2018-06-09T15:33:26.504Z,24.20
2018-06-09T15:38:21.213Z,25.13
2018-06-09T15:43:16.328Z,27.57
2018-06-09T15:48:11.424Z,22.20
2018-06-09T15:53:06.674Z,23.67
2018-06-09T15:58:02.006Z,20.80
2018-06-09T16:02:56.676Z,22.00
2018-06-09T16:07:51.695Z,21.97
2018-06-09T16:12:46.733Z,21.87
2018-06-09T16:17:41.620Z,19.67
2018-06-09T16:22:36.624Z,24.70
2018-06-09T16:27:31.447Z,21.33
2018-06-09T16:32:26.595Z,23.83
2018-06-09T16:37:21.343Z,22.20
2018-06-09T16:42:16.320Z,17.60
2018-06-09T16:47:11.028Z,21.43
2018-06-09T16:52:06.466Z,19.93
2018-06-09T16:57:01.880Z,18.07
2018-06-09T17:01:56.641Z,23.43
2018-06-09T17:06:51.422Z,19.03
2018-06-09T17:11:46.209Z,16.77
2018-06-09T17:16:52.244Z,24.40
2018-06-09T17:21:47.011Z,18.53
2018-06-09T17:26:41.763Z,14.83
2018-06-09T17:31:36.644Z,16.07
2018-06-09T17:36:41.460Z,15.77
2018-06-09T17:41:46.786Z,16.17
2018-06-09T17:46:51.805Z,18.77
2018-06-09T17:51:47.804Z,14.30
2018-06-09T17:56:52.362Z,17.60
2018-06-09T18:01:55.125Z,15.63
2018-06-09T18:06:50.022Z,16.80
2018-06-09T18:11:44.969Z,16.43
2018-06-09T18:16:39.733Z,14.40
2018-06-09T18:21:34.673Z,16.37
2018-06-09T18:26:29.619Z,16.63
2018-06-09T18:31:24.621Z,22.63
2018-06-09T18:36:19.532Z,16.77
2018-06-09T18:41:14.314Z,18.80
2018-06-09T18:46:09.256Z,17.20
2018-06-09T18:51:04.021Z,19.50
2018-06-09T18:55:58.218Z,18.93
2018-06-09T19:00:52.792Z,18.67
2018-06-09T19:06:01.837Z,22.50
2018-06-09T19:10:56.877Z,19.93
2018-06-09T19:15:53.144Z,18.07
2018-06-09T19:20:48.765Z,19.77
2018-06-09T19:25:44.169Z,18.93
2018-06-09T19:30:39.391Z,23.97
2018-06-09T19:35:35.000Z,21.70
2018-06-09T19:40:30.908Z,18.30
2018-06-09T19:45:26.360Z,19.07
2018-06-09T19:50:21.300Z,19.97
2018-06-09T19:55:16.170Z,18.40
2018-06-09T20:00:11.361Z,20.03
2018-06-09T20:05:06.515Z,20.83
2018-06-09T20:10:01.843Z,18.47
2018-06-09T20:14:56.344Z,21.10
2018-06-09T20:19:51.609Z,20.67
2018-06-09T20:24:46.276Z,23.53
2018-06-09T20:29:41.338Z,21.80
2018-06-09T20:34:35.924Z,20.97
2018-06-09T20:39:31.925Z,21.57
2018-06-09T20:44:26.689Z,21.60
2018-06-09T20:49:21.575Z,20.67
2018-06-09T20:54:16.297Z,19.57
2018-06-09T20:59:12.144Z,20.37
2018-06-09T21:04:07.922Z,19.27
2018-06-09T21:09:02.372Z,20.87
2018-06-09T21:13:57.488Z,20.87
2018-06-09T21:18:52.307Z,19.73
2018-06-09T21:23:47.259Z,21.63
2018-06-09T21:28:47.295Z,18.10
2018-06-09T21:35:03.564Z,19.80
2018-06-09T21:40:02.230Z,22.70
2018-06-09T21:45:03.802Z,32.43
2018-06-09T21:49:58.584Z,30.90
2018-06-09T21:54:53.608Z,29.17
2018-06-09T21:59:48.697Z,31.77
2018-06-09T22:04:43.661Z,41.00
2018-06-09T22:09:39.393Z,40.00
2018-06-09T22:14:34.074Z,34.60
2018-06-09T22:19:28.752Z,33.83
2018-06-09T22:24:23.514Z,31.00
2018-06-09T22:29:19.312Z,25.57
2018-06-09T22:34:14.317Z,24.00
2018-06-09T22:39:08.983Z,24.13
2018-06-09T22:44:04.061Z,22.40
2018-06-09T22:48:59.105Z,22.47
2018-06-09T22:53:54.082Z,23.40
2018-06-09T22:58:49.767Z,24.70
2018-06-09T23:03:44.523Z,24.93
2018-06-09T23:08:39.288Z,26.40
2018-06-09T23:13:34.647Z,27.17
2018-06-09T23:18:29.622Z,28.27
2018-06-09T23:23:24.175Z,24.73
2018-06-09T23:28:18.586Z,25.03
2018-06-09T23:33:13.741Z,26.53
2018-06-09T23:38:10.586Z,27.23
2018-06-09T23:43:05.910Z,23.00
2018-06-09T23:48:00.768Z,24.83
2018-06-09T23:52:55.688Z,27.80
2018-06-09T23:57:50.828Z,27.67
